This is the latest recevied weather packets stored in our database for station/object OE-11208. If no packets are shown the sender has not sent any weather packets the latest 10 day(s).
| Time | Temp. | Humidity | Pressure | Rain* | Wind** | Luminosity | Snow |
|---|---|---|---|---|---|---|---|
| 1788073895 | 15° C | 84% | 1018.8 hPa | 0 mm | - | 141 W/m² | - |
| 1788073521 | 15° C | 86% | 1018.8 hPa | 0 mm | - | 134 W/m² | - |
| 1788072921 | 15° C | 86% | 1018.8 hPa | 0 mm | - | 141 W/m² | - |
| 1788072095 | 15° C | 85% | 1018.8 hPa | 0 mm | - | 161 W/m² | - |
| 1788071722 | 15° C | 85% | 1018.8 hPa | 0 mm | - | 256 W/m² | - |
| 1788071122 | 14.44° C | 88% | 1019.1 hPa | 0 mm | - | 195 W/m² | - |
| 1788070295 | 13.89° C | 89% | 1019.2 hPa | 0 mm | - | 222 W/m² | - |
| 1788069921 | 13.33° C | 93% | 1019.5 hPa | 0 mm | - | 175 W/m² | - |
| 1788069322 | 12.78° C | 96% | 1019.6 hPa | 0 mm | - | 134 W/m² | - |
| 1788068495 | 11.67° C | 96% | 1019.9 hPa | 0 mm | - | 114 W/m² | - |
| 1788068122 | 11.67° C | 96% | 1019.9 hPa | 0 mm | - | 74 W/m² | - |
| 1788067522 | 11.67° C | 96% | 1020 hPa | 0 mm | - | 67 W/m² | - |
| 1788066695 | 10.56° C | 96% | 1020.2 hPa | 0 mm | - | 34 W/m² | - |
| 1788066321 | 10.56° C | 95% | 1019.9 hPa | 0 mm | - | 13 W/m² | - |
| 1788065721 | 10.56° C | 96% | 1019.9 hPa | 0 mm | - | 7 W/m² | - |
| 1788064894 | 10.56° C | 96% | 1019.9 hPa | 0 mm | - | 7 W/m² | - |
| 1788064521 | 11.11° C | 95% | 1019.6 hPa | 0 mm | - | 0 W/m² | - |
| 1788063921 | 11.67° C | 95% | 1019.4 hPa | 0 mm | - | 0 W/m² | - |
| 1788063094 | 11.11° C | 95% | 1019.4 hPa | 0 mm | - | 0 W/m² | - |
| 1788062721 | 11.67° C | 95% | 1019.1 hPa | 0 mm | - | 0 W/m² | - |
| 1788062121 | 11.67° C | 94% | 1019.2 hPa | 0 mm | - | 0 W/m² | - |
| 1788061522 | 12.22° C | 94% | 1019.1 hPa | 0 mm | - | 0 W/m² | - |
| 1788060921 | 12.22° C | 94% | 1019.1 hPa | 0 mm | - | 0 W/m² | - |
| 1788060321 | 12.78° C | 93% | 1018.7 hPa | 0 mm | - | 0 W/m² | - |
| 1788059495 | 12.78° C | 93% | 1018.9 hPa | 0 mm | - | 0 W/m² | - |
* Rain latest hour (hover to see other rain measurements)
** Current wind speed in m/s (hover to see current wind gust speed)